Time;durP1;ratioP1;P1;durP2;ratioP2;P2;SDS_P1;SDS_P2;PMS_P1;PMS_P2;Temp;Humidity;BMP_temperature;BMP_pressure;BME280_temperature;BME280_humidity;BME280_pressure;Samples;Min_cycle;Max_cycle;Signal;HPM_P1;HPM_P2
2023/03/08 00:01:12;;;;;;;10.02;7.55;;;;;;;-0.16;100.00;100108.50;5090132;28;20075;-36
2023/03/08 00:03:38;;;;;;;10.07;7.68;;;;;;;-0.24;100.00;100095.28;5090935;28;20046;-36
2023/03/08 00:06:06;;;;;;;9.07;7.18;;;;;;;-0.20;100.00;100096.59;5090585;28;20020;-36
2023/03/08 00:08:31;;;;;;;10.23;7.57;;;;;;;-0.33;100.00;100076.78;5089877;28;20410;-36
2023/03/08 00:10:56;;;;;;;9.57;7.27;;;;;;;-0.26;100.00;100084.84;5089713;28;20089;-36
2023/03/08 00:13:22;;;;;;;8.73;7.83;;;;;;;-0.22;100.00;100083.47;5080485;28;20043;-36
2023/03/08 00:15:47;;;;;;;10.93;8.00;;;;;;;-0.16;100.00;100084.59;5076599;28;20021;-36
2023/03/08 00:18:12;;;;;;;10.10;8.43;;;;;;;-0.18;100.00;100074.16;5076815;28;20039;-36
2023/03/08 00:20:38;;;;;;;10.83;8.90;;;;;;;-0.17;100.00;100080.28;5076146;28;20487;-36
2023/03/08 00:23:03;;;;;;;10.73;9.17;;;;;;;-0.22;100.00;100083.47;5075814;28;20389;-36
2023/03/08 00:25:28;;;;;;;9.60;8.40;;;;;;;-0.20;100.00;100077.97;5076749;28;20096;-36
2023/03/08 00:27:54;;;;;;;12.23;8.87;;;;;;;-0.22;100.00;100069.38;5076098;28;20059;-36
2023/03/08 00:30:19;;;;;;;11.83;9.43;;;;;;;-0.14;100.00;100072.78;5076040;28;20021;-36
2023/03/08 00:32:45;;;;;;;10.77;9.30;;;;;;;-0.14;100.00;100075.44;5075987;28;20301;-36
2023/03/08 00:35:10;;;;;;;12.47;9.70;;;;;;;-0.18;100.00;100074.16;5076027;28;20251;-36
2023/03/08 00:37:35;;;;;;;14.33;10.67;;;;;;;-0.19;100.00;100063.72;5076222;28;20032;-35
2023/03/08 00:40:01;;;;;;;16.53;11.53;;;;;;;-0.20;100.00;100075.31;5074969;28;20104;-36
2023/03/08 00:42:26;;;;;;;13.70;11.93;;;;;;;-0.15;100.00;100070.28;5075667;28;20522;-36
2023/03/08 00:44:51;;;;;;;13.30;11.73;;;;;;;-0.20;100.00;100064.69;5076122;28;20027;-36
2023/03/08 00:47:17;;;;;;;15.87;13.00;;;;;;;-0.11;100.00;100069.75;5075721;28;20039;-36
2023/03/08 00:49:43;;;;;;;16.07;12.13;;;;;;;-0.12;100.00;100070.78;5076248;28;20517;-36
2023/03/08 00:52:08;;;;;;;20.50;14.75;;;;;;;-0.08;100.00;100079.22;5075644;28;20119;-36
2023/03/08 00:54:34;;;;;;;13.80;11.07;;;;;;;0.02;100.00;100074.47;5075581;28;20028;-36
2023/03/08 00:56:59;;;;;;;14.23;11.77;;;;;;;0.05;100.00;100071.44;5076300;28;20052;-36
2023/03/08 00:59:25;;;;;;;16.90;12.60;;;;;;;-0.21;100.00;100017.88;5076071;28;20477;-36
2023/03/08 01:01:50;;;;;;;16.93;13.37;;;;;;;0.02;100.00;100068.31;5075847;28;20070;-36
2023/03/08 01:04:16;;;;;;;15.18;13.35;;;;;;;0.02;100.00;100057.69;5075086;28;20036;-36
2023/03/08 01:06:44;;;;;;;17.10;13.70;;;;;;;-0.02;100.00;100047.41;5075590;28;20066;-36
2023/03/08 01:09:11;;;;;;;16.65;13.27;;;;;;;0.09;100.00;100069.25;5075381;28;20522;-36
2023/03/08 01:11:37;;;;;;;14.63;13.00;;;;;;;0.01;100.00;100054.22;5075170;28;20028;-36
2023/03/08 01:14:03;;;;;;;;;;;;;;;0.12;100.00;100052.94;5076240;28;20431;-36
2023/03/08 01:16:31;;;;;;;16.53;13.57;;;;;;;0.07;100.00;100050.81;5075207;28;19909;-36
2023/03/08 01:18:59;;;;;;;17.23;13.75;;;;;;;0.03;100.00;100038.88;5075325;28;20032;-36
2023/03/08 01:21:24;;;;;;;14.77;12.35;;;;;;;0.19;100.00;100040.53;5074773;28;20081;-35
2023/03/08 01:23:50;;;;;;;19.70;15.27;;;;;;;0.08;100.00;100041.00;5074747;28;20028;-36
2023/03/08 01:26:18;;;;;;;17.42;14.45;;;;;;;0.04;100.00;100035.22;5075124;28;20028;-35
2023/03/08 01:28:44;;;;;;;17.10;15.02;;;;;;;0.00;100.00;100023.31;5074861;28;20032;-35
2023/03/08 01:31:15;;;;;;;16.33;13.95;;;;;;;0.08;100.00;100031.19;5075349;28;20043;-36
2023/03/08 01:33:42;;;;;;;14.57;12.95;;;;;;;0.11;100.00;100028.19;5074588;28;20031;-36
2023/03/08 01:36:10;;;;;;;16.42;14.02;;;;;;;0.11;100.00;100017.53;5075261;28;20120;-36
2023/03/08 01:38:36;;;;;;;16.23;14.18;;;;;;;0.03;100.00;99996.38;5074659;28;20116;-36
2023/03/08 01:41:03;;;;;;;15.53;13.83;;;;;;;0.06;100.00;100001.31;5074409;28;20112;-36
2023/03/08 01:43:29;;;;;;;18.13;15.35;;;;;;;0.04;100.00;99994.53;5074809;28;20298;-36
2023/03/08 01:46:06;;;;;;;17.50;14.17;;;;;;;0.14;100.00;100003.03;5074866;28;20453;-36
2023/03/08 01:48:41;;;;;;;16.00;14.30;;;;;;;0.22;100.00;100003.78;5075093;28;20376;-36
2023/03/08 01:51:10;;;;;;;17.13;14.75;;;;;;;0.13;100.00;99975.63;5074531;28;20044;-36
2023/03/08 01:53:38;;;;;;;17.98;15.65;;;;;;;0.21;100.00;99994.16;5074077;28;20060;-36
2023/03/08 01:56:07;;;;;;;17.02;15.23;;;;;;;0.20;100.00;99984.53;5074728;28;20028;-36
2023/03/08 01:58:34;;;;;;;19.80;16.95;;;;;;;0.18;100.00;99986.53;5074630;28;20028;-36
2023/03/08 02:00:59;;;;;;;18.95;16.00;;;;;;;0.14;100.00;99977.28;5074459;28;20084;-36
2023/03/08 02:03:24;;;;;;;19.63;16.27;;;;;;;0.25;100.00;99998.09;5075098;28;20032;-36
2023/03/08 02:05:50;;;;;;;23.63;18.37;;;;;;;0.15;100.00;99988.78;5074293;28;20456;-36
2023/03/08 02:08:16;;;;;;;21.00;17.65;;;;;;;0.14;100.00;99987.91;5073583;28;20033;-36
2023/03/08 02:10:42;;;;;;;22.25;17.75;;;;;;;0.16;100.00;99987.75;5074395;28;20107;-36
2023/03/08 02:13:10;;;;;;;22.33;18.35;;;;;;;0.19;100.00;99982.88;5073721;28;20035;-36
2023/03/08 02:15:35;;;;;;;19.40;16.98;;;;;;;0.28;100.00;99977.47;5073747;28;20052;-36
2023/03/08 02:18:01;;;;;;;21.08;16.65;;;;;;;0.35;100.00;99973.06;5074314;28;20024;-36
2023/03/08 02:20:34;;;;;;;21.23;17.70;;;;;;;0.30;100.00;99959.50;5074420;28;20064;-35
2023/03/08 02:23:12;;;;;;;20.33;17.95;;;;;;;0.37;100.00;99960.41;5073893;28;20056;-35
2023/03/08 02:25:38;;;;;;;22.15;17.15;;;;;;;0.42;100.00;99952.69;5073884;28;20055;-35
2023/03/08 02:28:04;;;;;;;;;;;;;;;0.47;100.00;99942.31;5074236;28;20031;-35
2023/03/08 02:30:33;;;;;;;21.20;16.80;;;;;;;0.49;100.00;99949.09;5073574;28;19995;-36
2023/03/08 02:32:59;;;;;;;22.02;17.48;;;;;;;0.54;100.00;99937.91;5073694;28;20039;-35
2023/03/08 02:35:25;;;;;;;17.33;14.13;;;;;;;0.62;100.00;99940.41;5073353;28;20025;-35
2023/03/08 02:37:50;;;;;;;24.25;20.15;;;;;;;0.28;100.00;99905.66;5073945;28;20029;-35
2023/03/08 02:40:16;;;;;;;25.80;19.63;;;;;;;0.51;100.00;99936.41;5074312;28;20024;-35
2023/03/08 02:42:41;;;;;;;24.57;19.33;;;;;;;0.48;100.00;99931.47;5073289;28;20483;-35
2023/03/08 02:45:07;;;;;;;24.30;19.90;;;;;;;0.50;100.00;99933.97;5074185;28;20263;-35
2023/03/08 02:47:33;;;;;;;;;;;;;;;0.58;100.00;99923.19;5074565;28;20028;-35
2023/03/08 02:49:58;;;;;;;24.95;17.85;;;;;;;0.54;100.00;99921.94;5073628;28;20360;-35
2023/03/08 02:52:23;;;;;;;30.33;21.60;;;;;;;0.52;100.00;99926.59;5073611;28;20066;-35
2023/03/08 02:54:49;;;;;;;27.80;21.13;;;;;;;0.50;100.00;99931.28;5073620;28;20130;-35
2023/03/08 02:57:14;;;;;;;32.00;24.00;;;;;;;0.41;100.00;99925.25;5072827;28;20024;-35
2023/03/08 02:59:39;;;;;;;26.67;20.43;;;;;;;0.53;100.00;99925.59;5074344;28;20453;-35
2023/03/08 03:02:05;;;;;;;31.53;23.30;;;;;;;0.49;100.00;99937.63;5073850;28;20072;-35
2023/03/08 03:04:32;;;;;;;30.23;23.40;;;;;;;0.52;100.00;99931.91;5074054;28;20074;-36
2023/03/08 03:06:58;;;;;;;30.48;22.17;;;;;;;0.52;100.00;99923.94;5072237;28;20029;-35
2023/03/08 03:09:23;;;;;;;33.83;24.42;;;;;;;0.48;100.00;99920.81;5073165;28;20028;-35
2023/03/08 03:11:48;;;;;;;29.40;21.73;;;;;;;0.52;100.00;99915.97;5073719;28;20032;-35
2023/03/08 03:14:14;;;;;;;32.10;24.03;;;;;;;0.48;100.00;99909.38;5073666;28;20063;-35
2023/03/08 03:16:39;;;;;;;26.90;19.80;;;;;;;0.58;100.00;99899.22;5073593;28;20523;-35
2023/03/08 03:19:05;;;;;;;30.17;21.17;;;;;;;0.64;100.00;99898.50;5073362;28;20020;-35
2023/03/08 03:21:30;;;;;;;29.50;22.20;;;;;;;0.64;100.00;99900.34;5073201;28;20029;-35
2023/03/08 03:23:55;;;;;;;30.90;23.93;;;;;;;0.63;100.00;99896.00;5073385;28;20028;-35
2023/03/08 03:26:23;;;;;;;28.90;22.03;;;;;;;0.70;100.00;99896.91;5073569;28;20024;-35
2023/03/08 03:28:48;;;;;;;30.13;21.73;;;;;;;0.75;100.00;99883.88;5072920;28;20032;-35
2023/03/08 03:31:17;;;;;;;31.35;22.42;;;;;;;0.65;100.00;99881.53;5072943;28;20036;-35
2023/03/08 03:33:44;;;;;;;32.10;23.48;;;;;;;0.69;100.00;99884.63;5072846;28;20541;-35
2023/03/08 03:36:12;;;;;;;34.90;25.77;;;;;;;0.65;100.00;99876.19;5073126;28;20112;-35
2023/03/08 03:38:38;;;;;;;30.70;22.63;;;;;;;0.69;100.00;99858.84;5073068;28;20058;-35
2023/03/08 03:41:06;;;;;;;32.58;24.05;;;;;;;0.64;100.00;99853.28;5073304;28;20028;-35
2023/03/08 03:43:31;;;;;;;31.20;22.63;;;;;;;0.63;100.00;99840.13;5073131;28;20112;-35
2023/03/08 03:45:58;;;;;;;31.00;23.05;;;;;;;0.71;100.00;99850.66;5073663;28;20177;-35
2023/03/08 03:48:24;;;;;;;30.30;22.70;;;;;;;0.73;100.00;99844.16;5074860;28;20041;-35
2023/03/08 03:51:03;;;;;;;32.92;23.42;;;;;;;0.72;100.00;99842.47;5076835;28;20063;-36
2023/03/08 03:53:30;;;;;;;31.52;23.33;;;;;;;0.73;100.00;99840.63;5076531;28;20036;-36
2023/03/08 03:56:07;;;;;;;30.50;23.05;;;;;;;0.74;100.00;99842.31;5076648;28;20032;-36
2023/03/08 03:58:32;;;;;;;30.23;22.80;;;;;;;0.77;100.00;99845.38;5076602;28;20024;-35
2023/03/08 04:00:58;;;;;;;27.73;21.25;;;;;;;0.82;100.00;99833.34;5076525;28;20059;-35
2023/03/08 04:03:24;;;;;;;31.47;23.30;;;;;;;0.82;100.00;99834.16;5077152;28;20040;-35
2023/03/08 04:05:49;;;;;;;28.33;22.05;;;;;;;0.85;100.00;99835.63;5077370;28;20275;-35
2023/03/08 04:08:14;;;;;;;32.00;23.03;;;;;;;0.85;100.00;99831.13;5076488;28;20453;-35
2023/03/08 04:10:40;;;;;;;32.40;25.13;;;;;;;0.83;100.00;99822.53;5076411;28;20028;-35
2023/03/08 04:13:05;;;;;;;29.10;22.03;;;;;;;0.77;100.00;99813.44;5075489;28;20025;-35
2023/03/08 04:15:30;;;;;;;29.60;22.87;;;;;;;0.86;100.00;99822.13;5076649;28;20032;-35
2023/03/08 04:17:56;;;;;;;25.70;19.87;;;;;;;0.82;100.00;99786.25;5076556;28;20029;-35
2023/03/08 04:20:22;;;;;;;27.80;21.47;;;;;;;0.94;100.00;99810.53;5076277;28;20024;-35
2023/03/08 04:22:47;;;;;;;31.30;23.58;;;;;;;0.87;100.00;99802.47;5076916;28;20453;-35
2023/03/08 04:25:13;;;;;;;31.37;24.53;;;;;;;0.82;100.00;99801.41;5076476;28;20027;-35
2023/03/08 04:27:38;;;;;;;30.43;23.33;;;;;;;0.77;100.00;99797.47;5075724;28;20043;-35
2023/03/08 04:30:04;;;;;;;31.37;24.43;;;;;;;0.64;100.00;99781.44;5076711;28;20358;-35
2023/03/08 04:32:31;;;;;;;32.88;25.20;;;;;;;0.66;100.00;99789.22;5076053;28;20056;-35
2023/03/08 04:34:56;;;;;;;33.53;24.45;;;;;;;0.68;100.00;99789.81;5075987;28;20115;-35
2023/03/08 04:37:24;;;;;;;32.00;24.23;;;;;;;0.67;100.00;99790.84;5075935;28;20048;-35
2023/03/08 04:39:50;;;;;;;30.48;23.02;;;;;;;0.62;100.00;99778.13;5076186;28;20024;-35
2023/03/08 04:42:15;;;;;;;32.37;23.33;;;;;;;0.69;100.00;99772.88;5076053;28;20476;-35
2023/03/08 04:44:40;;;;;;;29.43;22.30;;;;;;;0.60;100.00;99758.06;5076435;28;20024;-35
2023/03/08 04:47:06;;;;;;;30.23;23.60;;;;;;;0.61;100.00;99770.34;5075757;28;20035;-35
2023/03/08 04:49:31;;;;;;;29.97;22.67;;;;;;;0.62;100.00;99764.81;5076047;28;20465;-35
2023/03/08 04:51:56;;;;;;;29.27;23.33;;;;;;;0.50;100.00;99748.56;5075706;28;20028;-35
2023/03/08 04:54:22;;;;;;;28.50;22.03;;;;;;;0.53;100.00;99747.34;5076539;28;20404;-36
2023/03/08 04:56:47;;;;;;;26.42;21.23;;;;;;;0.50;100.00;99737.09;5075532;28;20025;-35
2023/03/08 04:59:13;;;;;;;23.77;19.73;;;;;;;0.58;100.00;99746.78;5075778;28;20115;-35
2023/03/08 05:01:38;;;;;;;25.80;20.37;;;;;;;0.53;100.00;99742.03;5075509;28;20078;-34
2023/03/08 05:04:03;;;;;;;24.60;20.03;;;;;;;0.59;100.00;99727.97;5075746;28;20159;-35
2023/03/08 05:06:29;;;;;;;23.43;18.33;;;;;;;0.65;100.00;99729.84;5075426;28;20059;-35
2023/03/08 05:08:54;;;;;;;22.80;19.15;;;;;;;0.62;100.00;99719.59;5074128;28;20033;-35
2023/03/08 05:11:26;;;;;;;22.77;18.63;;;;;;;0.54;100.00;99721.56;5076178;28;20021;-35
2023/03/08 05:13:56;;;;;;;22.08;17.73;;;;;;;0.54;100.00;99718.91;5075234;28;20275;-35
2023/03/08 05:16:22;;;;;;;19.88;16.52;;;;;;;0.55;100.00;99713.41;5075460;28;20040;-35
2023/03/08 05:18:47;;;;;;;;;;;;;;;0.64;100.00;99722.06;5075748;28;20044;-35
2023/03/08 05:21:16;;;;;;;17.65;14.32;;;;;;;0.70;100.00;99711.47;5075454;28;19912;-35
2023/03/08 05:23:41;;;;;;;17.75;14.73;;;;;;;0.64;100.00;99706.94;5074605;28;20030;-36
2023/03/08 05:26:08;;;;;;;19.08;15.50;;;;;;;0.66;100.00;99698.75;5074927;28;20052;-36
2023/03/08 05:28:34;;;;;;;;;;;;;;;0.74;100.00;99696.75;5075259;28;20032;-36
2023/03/08 05:31:27;;;;;;;19.63;16.33;;;;;;;0.70;100.00;99689.38;5074533;28;19915;-35
2023/03/08 05:33:52;;;;;;;18.88;16.10;;;;;;;0.69;100.00;99683.22;5073659;28;20044;-36
2023/03/08 05:36:18;;;;;;;18.60;15.83;;;;;;;0.70;100.00;99684.84;5075428;28;20034;-35
2023/03/08 05:38:44;;;;;;;;;;;;;;;0.75;100.00;99671.78;5074943;28;20541;-35
2023/03/08 05:41:14;;;;;;;18.15;15.82;;;;;;;0.68;100.00;99667.44;5074693;28;19912;-35
2023/03/08 05:43:40;;;;;;;17.95;15.05;;;;;;;0.64;100.00;99652.91;5074756;28;20074;-35
2023/03/08 05:46:08;;;;;;;18.90;16.40;;;;;;;0.65;100.00;99647.38;5074662;28;20032;-35
2023/03/08 05:48:34;;;;;;;20.23;16.80;;;;;;;0.70;100.00;99652.13;5074608;28;20090;-35
2023/03/08 05:51:05;;;;;;;18.35;15.90;;;;;;;0.69;100.00;99634.50;5075118;28;20153;-35
2023/03/08 05:53:30;;;;;;;19.15;16.48;;;;;;;0.72;100.00;99639.41;5074379;28;20074;-35
2023/03/08 05:55:56;;;;;;;21.20;18.23;;;;;;;0.70;100.00;99642.28;5074998;28;20103;-35
2023/03/08 05:58:21;;;;;;;18.43;15.70;;;;;;;0.69;100.00;99637.16;5074916;28;20028;-35
2023/03/08 06:00:46;;;;;;;21.47;18.17;;;;;;;0.64;100.00;99627.13;5074332;28;20510;-35
2023/03/08 06:03:12;;;;;;;19.07;17.00;;;;;;;0.58;100.00;99611.91;5075273;28;20076;-35
2023/03/08 06:05:37;;;;;;;18.40;15.60;;;;;;;0.61;100.00;99606.22;5074009;28;20036;-35
2023/03/08 06:08:03;;;;;;;21.27;17.23;;;;;;;0.65;100.00;99614.63;5074183;28;20115;-36
2023/03/08 06:10:28;;;;;;;20.90;16.67;;;;;;;0.62;100.00;99613.16;5073863;28;20024;-36
2023/03/08 06:12:54;;;;;;;18.02;15.68;;;;;;;0.66;100.00;99622.41;5074575;28;20369;-36
2023/03/08 06:15:19;;;;;;;19.17;16.47;;;;;;;0.65;100.00;99619.94;5074058;28;20484;-36
2023/03/08 06:17:44;;;;;;;21.23;16.17;;;;;;;0.66;100.00;99616.25;5073735;28;20047;-36
2023/03/08 06:20:10;;;;;;;20.20;15.93;;;;;;;0.64;100.00;99611.16;5073997;28;20092;-36
2023/03/08 06:22:36;;;;;;;19.88;17.02;;;;;;;0.63;100.00;99604.16;5073555;28;20035;-36
2023/03/08 06:25:02;;;;;;;18.53;16.10;;;;;;;0.62;100.00;99613.16;5074204;28;20033;-36
2023/03/08 06:27:27;;;;;;;21.92;17.20;;;;;;;0.61;100.00;99611.53;5073842;28;20450;-36
2023/03/08 06:29:54;;;;;;;19.23;16.03;;;;;;;0.60;100.00;99609.91;5074733;28;20099;-36
2023/03/08 06:32:19;;;;;;;;;;;;;;;0.69;100.00;99618.53;5074188;28;20039;-36
2023/03/08 06:34:45;;;;;;;16.37;13.80;;;;;;;0.62;100.00;99609.69;5074087;28;19908;-36
2023/03/08 06:37:11;;;;;;;19.30;15.60;;;;;;;0.55;100.00;99612.31;5073975;28;20048;-36
2023/03/08 06:39:36;;;;;;;19.23;14.20;;;;;;;0.54;100.00;99610.69;5074022;28;20456;-36
2023/03/08 06:42:02;;;;;;;17.03;13.17;;;;;;;0.51;100.00;99603.09;5073639;28;20435;-36
2023/03/08 06:44:28;;;;;;;15.13;11.70;;;;;;;0.45;100.00;99595.91;5074240;28;20035;-36
2023/03/08 06:46:54;;;;;;;13.52;11.93;;;;;;;0.27;100.00;99577.78;5073293;28;20473;-36
2023/03/08 06:49:20;;;;;;;12.45;10.15;;;;;;;0.22;100.00;99586.34;5073934;28;20046;-36
2023/03/08 06:51:45;;;;;;;13.68;10.43;;;;;;;0.24;100.00;99594.97;5073340;28;20433;-36
2023/03/08 06:54:16;;;;;;;12.20;10.20;;;;;;;0.19;100.00;99602.66;5072188;28;20028;-36
2023/03/08 06:56:41;;;;;;;11.20;9.35;;;;;;;0.23;100.00;99600.44;5074126;28;20029;-36
2023/03/08 06:59:07;;;;;;;12.40;9.23;;;;;;;0.22;100.00;99602.28;5073827;28;20472;-36
2023/03/08 07:01:32;;;;;;;13.60;8.20;;;;;;;0.17;100.00;99604.72;5073691;28;20063;-36
2023/03/08 07:03:58;;;;;;;8.27;7.10;;;;;;;0.20;100.00;99609.66;5073550;28;20020;-36
2023/03/08 07:06:24;;;;;;;10.20;8.18;;;;;;;0.20;100.00;99608.84;5073505;28;20108;-36
2023/03/08 07:08:49;;;;;;;9.77;8.00;;;;;;;0.18;100.00;99605.53;5071990;28;20103;-36
2023/03/08 07:11:14;;;;;;;9.80;7.50;;;;;;;0.18;100.00;99606.34;5073461;28;20059;-36
2023/03/08 07:13:40;;;;;;;10.77;7.23;;;;;;;0.14;100.00;99602.41;5073927;28;20350;-36
2023/03/08 07:16:10;;;;;;;8.82;7.70;;;;;;;0.09;100.00;99588.91;5073915;28;20028;-36
2023/03/08 07:18:36;;;;;;;9.10;6.88;;;;;;;0.08;100.00;99584.59;5073591;28;20028;-36
2023/03/08 07:21:01;;;;;;;9.77;7.55;;;;;;;0.10;100.00;99585.25;5073545;28;20062;-36
2023/03/08 07:23:27;;;;;;;9.70;8.07;;;;;;;-0.01;100.00;99572.47;5075916;28;20052;-36
2023/03/08 07:25:52;;;;;;;10.77;7.63;;;;;;;0.08;100.00;99579.28;5076414;28;20020;-36
2023/03/08 07:28:17;;;;;;;10.90;8.13;;;;;;;0.14;100.00;99573.19;5077528;28;20028;-36
2023/03/08 07:30:47;;;;;;;10.63;7.60;;;;;;;0.11;100.00;99572.78;5077045;28;20258;-36
2023/03/08 07:33:13;;;;;;;12.43;7.38;;;;;;;0.10;100.00;99576.41;5075916;28;20020;-36
2023/03/08 07:35:38;;;;;;;8.88;6.82;;;;;;;0.13;100.00;99568.06;5077124;28;20085;-36
2023/03/08 07:38:04;;;;;;;7.30;6.20;;;;;;;0.16;100.00;99560.53;5076798;28;20028;-36
2023/03/08 07:40:29;;;;;;;8.90;5.80;;;;;;;0.16;100.00;99560.53;5077346;28;20031;-35
2023/03/08 07:42:55;;;;;;;7.53;5.90;;;;;;;0.13;100.00;99560.91;5077172;28;20032;-35
2023/03/08 07:45:21;;;;;;;8.20;5.93;;;;;;;0.14;100.00;99561.72;5076909;28;20033;-35
2023/03/08 07:47:51;;;;;;;8.32;6.30;;;;;;;0.06;100.00;99559.25;5077135;28;20028;-36
2023/03/08 07:50:17;;;;;;;8.48;6.18;;;;;;;0.13;100.00;99555.59;5077122;28;20040;-35
2023/03/08 07:52:42;;;;;;;7.35;6.20;;;;;;;0.10;100.00;99563.97;5077103;28;20032;-35
2023/03/08 07:55:08;;;;;;;11.43;7.97;;;;;;;0.02;100.00;99557.97;5076505;28;20104;-36
2023/03/08 07:57:34;;;;;;;8.65;6.40;;;;;;;0.08;100.00;99552.69;5076479;28;20082;-36
2023/03/08 07:59:59;;;;;;;7.60;6.35;;;;;;;0.11;100.00;99556.81;5076952;28;20032;-36
2023/03/08 08:02:24;;;;;;;8.70;6.90;;;;;;;0.03;100.00;99551.66;5076931;28;20048;-36
2023/03/08 08:04:50;;;;;;;8.77;7.10;;;;;;;0.06;100.00;99543.28;5076884;28;20031;-36
2023/03/08 08:07:15;;;;;;;7.97;6.80;;;;;;;0.04;100.00;99554.09;5076455;28;20024;-35
2023/03/08 08:09:41;;;;;;;12.25;8.05;;;;;;;-0.12;100.00;99535.81;5076500;28;20457;-35
2023/03/08 08:12:07;;;;;;;11.25;7.60;;;;;;;0.03;100.00;99527.72;5076433;28;20036;-36
2023/03/08 08:14:32;;;;;;;10.80;7.50;;;;;;;-0.06;100.00;99525.22;5076695;28;20484;-35
2023/03/08 08:16:58;;;;;;;8.57;7.10;;;;;;;0.08;100.00;99538.59;5076926;28;20423;-35
2023/03/08 08:19:24;;;;;;;9.10;7.40;;;;;;;0.05;100.00;99537.16;5076682;28;20035;-36
2023/03/08 08:21:49;;;;;;;9.27;7.35;;;;;;;0.05;100.00;99525.69;5076436;28;20074;-36
2023/03/08 08:24:15;;;;;;;10.23;8.02;;;;;;;0.04;100.00;99526.69;5076023;28;20024;-35
2023/03/08 08:26:40;;;;;;;9.45;7.82;;;;;;;0.01;100.00;99519.94;5076201;28;20071;-36
2023/03/08 08:29:06;;;;;;;7.55;6.72;;;;;;;0.04;100.00;99519.53;5075196;28;20036;-35
2023/03/08 08:31:32;;;;;;;8.02;6.95;;;;;;;-0.04;100.00;99501.94;5076903;28;20029;-36
2023/03/08 08:33:58;;;;;;;9.10;7.68;;;;;;;0.11;100.00;99511.63;5075833;28;20033;-35
2023/03/08 08:36:24;;;;;;;7.18;6.20;;;;;;;0.09;100.00;99517.13;5075825;28;20035;-36
2023/03/08 08:38:50;;;;;;;6.53;5.53;;;;;;;0.08;100.00;99504.03;5075938;28;20033;-36
2023/03/08 08:41:17;;;;;;;8.68;6.72;;;;;;;0.11;100.00;99496.50;5076089;28;20034;-36
2023/03/08 08:43:45;;;;;;;8.07;5.85;;;;;;;0.12;100.00;99489.34;5076388;28;20102;-35
2023/03/08 08:46:11;;;;;;;7.38;5.93;;;;;;;0.11;100.00;99495.69;5075827;28;20064;-35
2023/03/08 08:48:37;;;;;;;;;;;;;;;0.19;100.00;99500.81;5076523;28;20078;-36
2023/03/08 08:51:04;;;;;;;7.40;5.97;;;;;;;0.05;100.00;99480.50;5076043;28;19912;-35
2023/03/08 08:53:30;;;;;;;6.85;6.15;;;;;;;0.16;100.00;99495.91;5075734;28;20050;-34
2023/03/08 08:55:56;;;;;;;7.85;6.88;;;;;;;0.12;100.00;99503.44;5075699;28;20086;-35
2023/03/08 08:58:21;;;;;;;7.40;6.57;;;;;;;0.07;100.00;99502.41;5075570;28;20086;-35
2023/03/08 09:00:47;;;;;;;7.90;6.73;;;;;;;0.06;100.00;99511.41;5075183;28;20025;-35
2023/03/08 09:03:12;;;;;;;9.48;6.85;;;;;;;0.07;100.00;99513.03;5075600;28;20143;-35
2023/03/08 09:05:40;;;;;;;8.25;6.70;;;;;;;0.07;100.00;99502.41;5075461;28;20063;-36
2023/03/08 09:08:06;;;;;;;6.90;6.18;;;;;;;0.16;100.00;99511.88;5075338;28;20040;-36
2023/03/08 09:10:34;;;;;;;6.25;5.57;;;;;;;-0.03;100.00;99498.25;5075640;28;20107;-35
2023/03/08 09:13:00;;;;;;;6.13;5.32;;;;;;;0.16;100.00;99512.69;5075579;28;20127;-36
2023/03/08 09:15:26;;;;;;;5.77;5.13;;;;;;;0.20;100.00;99511.28;5075079;28;20115;-35
2023/03/08 09:17:52;;;;;;;6.32;5.07;;;;;;;0.18;100.00;99483.22;5076027;28;20166;-36
2023/03/08 09:20:18;;;;;;;21.63;6.85;;;;;;;0.17;100.00;99470.97;5075723;28;20099;-36
2023/03/08 09:22:44;;;;;;;6.82;5.50;;;;;;;0.13;100.00;99457.25;5075629;28;20028;-36
2023/03/08 09:25:10;;;;;;;6.60;5.90;;;;;;;0.04;100.00;99445.13;5075381;28;20468;-36
2023/03/08 09:27:36;;;;;;;;;;;;;;;0.21;100.00;99461.59;5075708;28;20056;-37
2023/03/08 09:30:01;;;;;;;7.57;6.55;;;;;;;0.12;100.00;99452.13;5074998;28;20265;-35
2023/03/08 09:32:26;;;;;;;9.47;8.57;;;;;;;-0.03;100.00;99442.44;5075162;28;20024;-35
2023/03/08 09:34:52;;;;;;;9.27;7.93;;;;;;;0.10;100.00;99448.81;5074665;28;20465;-36
2023/03/08 09:37:18;;;;;;;11.27;8.77;;;;;;;0.14;100.00;99444.75;5074778;28;20060;-35
2023/03/08 09:39:44;;;;;;;9.27;8.37;;;;;;;0.07;100.00;99422.66;5074795;28;20521;-35
2023/03/08 09:42:37;;;;;;;;;;;;;;;0.29;100.00;99429.47;5075865;28;20348;-36
2023/03/08 09:45:16;;;;;;;11.98;10.73;;;;;;;0.07;100.00;99436.78;5074209;28;20340;-36
2023/03/08 09:47:51;;;;;;;11.65;10.45;;;;;;;0.07;100.00;99428.78;5074267;28;20364;-36
2023/03/08 09:50:31;;;;;;;12.85;11.55;;;;;;;0.10;100.00;99420.44;5074548;28;20036;-36
2023/03/08 09:53:09;;;;;;;13.40;11.68;;;;;;;0.18;100.00;99422.09;5074785;28;20031;-36
2023/03/08 09:55:42;;;;;;;13.13;11.80;;;;;;;0.25;100.00;99431.75;5074444;28;20050;-35
2023/03/08 09:58:24;;;;;;;14.23;12.80;;;;;;;0.36;100.00;99432.19;5074997;28;20036;-36
2023/03/08 10:00:50;;;;;;;13.85;12.45;;;;;;;0.47;100.00;99423.63;5074615;28;20086;-36
2023/03/08 10:03:41;;;;;;;15.20;13.57;;;;;;;0.55;100.00;99407.50;5074523;28;20098;-36
2023/03/08 10:06:24;;;;;;;17.13;14.15;;;;;;;0.49;100.00;99401.16;5074292;28;20035;-36
2023/03/08 10:09:01;;;;;;;15.45;13.70;;;;;;;0.61;100.00;99412.00;5074180;28;20041;-36
2023/03/08 10:11:40;;;;;;;15.20;13.35;;;;;;;0.79;100.00;99403.44;5074469;28;20435;-36
2023/03/08 10:14:31;;;;;;;16.10;14.32;;;;;;;0.74;100.00;99401.41;5074658;28;20064;-36
2023/03/08 10:17:01;;;;;;;14.60;12.88;;;;;;;0.72;100.00;99398.09;5073756;28;20035;-36
2023/03/08 10:19:58;;;;;;;14.68;12.82;;;;;;;0.84;100.00;99416.16;5074291;28;20032;-36
2023/03/08 10:22:31;;;;;;;14.90;13.30;;;;;;;1.01;100.00;99422.72;5072161;28;20365;-35
2023/03/08 10:24:59;;;;;;;14.05;12.35;;;;;;;1.05;100.00;99420.47;5075345;28;20111;-35
2023/03/08 10:27:28;;;;;;;16.90;15.20;;;;;;;0.94;100.00;99424.56;5073573;28;20139;-35
2023/03/08 10:29:55;;;;;;;14.50;12.98;;;;;;;1.01;100.00;99412.06;5074435;28;20035;-35
2023/03/08 10:32:22;;;;;;;15.27;12.43;;;;;;;1.09;100.00;99405.72;5073157;28;20043;-36
2023/03/08 10:34:48;;;;;;;15.68;13.77;;;;;;;1.06;100.00;99401.63;5073559;28;20082;-35
2023/03/08 10:37:14;;;;;;;14.75;13.23;;;;;;;1.01;100.00;99401.41;5073522;28;20056;-35
2023/03/08 10:39:52;;;;;;;15.00;13.40;;;;;;;1.15;100.00;99394.25;5073815;28;20036;-36
2023/03/08 10:42:23;;;;;;;15.73;13.02;;;;;;;1.16;100.00;99386.06;5073298;28;20473;-36
2023/03/08 10:45:14;;;;;;;13.27;11.88;;;;;;;1.00;100.00;99371.31;5073999;28;20021;-36
2023/03/08 10:47:39;;;;;;;14.02;12.60;;;;;;;1.12;100.00;99379.50;5073651;28;20025;-36
2023/03/08 10:50:08;;;;;;;15.48;12.85;;;;;;;0.94;100.00;99385.44;5073022;28;20134;-36
2023/03/08 10:52:33;;;;;;;12.82;11.52;;;;;;;1.00;100.00;99376.63;5074363;28;20131;-36
2023/03/08 10:55:26;;;;;;;13.73;12.37;;;;;;;1.03;100.00;99370.91;5074181;28;20075;-36
2023/03/08 10:57:54;;;;;;;11.05;9.95;;;;;;;0.96;100.00;99375.41;5073711;28;20029;-36
2023/03/08 11:00:41;;;;;;;12.82;11.55;;;;;;;0.85;100.00;99362.72;5075389;28;20424;-37
2023/03/08 11:03:09;;;;;;;11.18;10.07;;;;;;;1.15;100.00;99405.72;5094459;28;20438;-36
2023/03/08 11:05:35;;;;;;;12.18;10.93;;;;;;;1.17;100.00;99393.03;5094079;28;20032;-36
2023/03/08 11:08:00;;;;;;;;;;;;;;;1.32;100.00;99394.63;5094253;28;20048;-36
2023/03/08 11:10:28;;;;;;;10.23;9.20;;;;;;;1.39;100.00;99398.13;5093844;28;20356;-36
2023/03/08 11:13:24;;;;;;;9.95;8.95;;;;;;;1.45;100.00;99389.31;5093454;28;20098;-37
2023/03/08 11:16:38;;;;;;;10.98;8.88;;;;;;;1.34;100.00;99379.28;5081086;28;20046;-36
2023/03/08 11:19:34;;;;;;;9.77;8.77;;;;;;;1.21;100.00;99382.78;5088272;28;20503;-36
2023/03/08 11:22:31;;;;;;;8.80;7.88;;;;;;;1.10;100.00;99386.88;5094163;28;20020;-36
2023/03/08 11:25:12;;;;;;;9.68;8.32;;;;;;;1.19;100.00;99379.50;5074857;28;20444;-36